createdAt,value
2018-09-06T00:00:44.322Z,4.90
2018-09-06T00:04:48.012Z,4.90
2018-09-06T00:08:51.689Z,5.97
2018-09-06T00:12:55.341Z,4.87
2018-09-06T00:16:58.964Z,5.37
2018-09-06T00:21:02.613Z,5.33
2018-09-06T00:25:06.401Z,5.37
2018-09-06T00:29:10.081Z,5.10
2018-09-06T00:33:13.737Z,6.00
2018-09-06T00:37:17.344Z,5.23
2018-09-06T00:41:21.060Z,4.90
2018-09-06T00:45:24.740Z,4.80
2018-09-06T00:49:28.472Z,5.37
2018-09-06T00:53:32.179Z,5.17
2018-09-06T00:57:35.958Z,4.80
2018-09-06T01:01:39.619Z,5.00
2018-09-06T01:05:43.327Z,4.60
2018-09-06T01:09:46.968Z,4.50
2018-09-06T01:13:50.679Z,5.13
2018-09-06T01:17:54.277Z,4.60
2018-09-06T01:21:57.988Z,5.53
2018-09-06T01:26:01.711Z,5.37
2018-09-06T01:30:05.640Z,4.63
2018-09-06T01:34:09.291Z,6.07
2018-09-06T01:38:12.998Z,6.17
2018-09-06T01:42:16.657Z,5.43
2018-09-06T01:46:20.299Z,6.27
2018-09-06T01:50:23.964Z,6.53
2018-09-06T01:54:27.676Z,6.40
2018-09-06T01:58:31.295Z,6.07
2018-09-06T02:02:34.954Z,7.23
2018-09-06T02:06:38.715Z,6.67
2018-09-06T02:10:42.408Z,6.87
2018-09-06T02:14:46.134Z,7.40
2018-09-06T02:18:49.913Z,6.73
2018-09-06T02:22:53.781Z,6.53
2018-09-06T02:26:57.437Z,7.47
2018-09-06T02:31:01.212Z,7.47
2018-09-06T02:35:04.903Z,7.20
2018-09-06T02:39:09.713Z,7.80
2018-09-06T02:43:14.040Z,7.73
2018-09-06T02:47:17.697Z,8.50
2018-09-06T02:51:21.875Z,8.13
2018-09-06T02:55:27.081Z,8.20
2018-09-06T02:59:30.757Z,8.80
2018-09-06T03:03:34.414Z,8.73
2018-09-06T03:07:38.110Z,8.97
2018-09-06T03:11:47.133Z,7.73
2018-09-06T03:15:50.854Z,8.80
2018-09-06T03:19:54.530Z,8.67
2018-09-06T03:23:58.240Z,8.87
2018-09-06T03:28:02.603Z,8.50
2018-09-06T03:32:06.384Z,8.43
2018-09-06T03:36:10.075Z,8.73
2018-09-06T03:40:13.725Z,8.77
2018-09-06T03:44:17.465Z,8.57
2018-09-06T03:48:21.136Z,8.73
2018-09-06T03:52:24.804Z,8.93
2018-09-06T03:56:28.459Z,8.23
2018-09-06T04:00:32.107Z,8.67
2018-09-06T04:04:35.813Z,8.23
2018-09-06T04:08:39.594Z,8.30
2018-09-06T04:12:43.253Z,9.00
2018-09-06T04:16:46.883Z,8.70
2018-09-06T04:20:50.561Z,8.07
2018-09-06T04:24:54.212Z,9.07
2018-09-06T04:28:57.952Z,9.67
2018-09-06T04:33:01.637Z,9.10
2018-09-06T04:37:05.299Z,8.97
2018-09-06T04:41:09.051Z,9.03
2018-09-06T04:45:12.721Z,8.37
2018-09-06T04:49:16.525Z,8.40
2018-09-06T04:53:20.168Z,8.70
2018-09-06T04:57:23.862Z,8.87
2018-09-06T05:01:27.575Z,9.13
2018-09-06T05:05:31.220Z,8.67
2018-09-06T05:09:34.876Z,8.67
2018-09-06T05:13:38.528Z,9.37
2018-09-06T05:17:42.163Z,8.90
2018-09-06T05:21:45.809Z,9.70
2018-09-06T05:25:49.467Z,8.87
2018-09-06T05:29:53.145Z,8.70
2018-09-06T05:33:56.828Z,8.77
2018-09-06T05:38:00.453Z,9.30
2018-09-06T05:42:04.176Z,8.20
2018-09-06T05:46:08.495Z,9.20
2018-09-06T05:51:15.081Z,8.97
2018-09-06T05:55:18.775Z,9.30
2018-09-06T05:59:22.457Z,9.03
2018-09-06T06:03:26.173Z,9.30
2018-09-06T06:07:40.809Z,8.63
2018-09-06T06:11:44.573Z,8.50
2018-09-06T06:15:48.283Z,7.97
2018-09-06T06:19:52.032Z,7.93
2018-09-06T06:23:56.560Z,7.03
2018-09-06T06:28:00.350Z,8.10
2018-09-06T06:32:04.143Z,7.83
2018-09-06T06:36:07.952Z,7.47
2018-09-06T06:40:11.721Z,8.27
2018-09-06T06:44:15.413Z,8.67
2018-09-06T06:48:19.109Z,8.57
2018-09-06T06:52:22.847Z,8.47
2018-09-06T06:56:26.533Z,8.17
2018-09-06T07:00:30.282Z,7.87
2018-09-06T07:04:34.178Z,8.20
2018-09-06T07:08:37.926Z,6.63
2018-09-06T07:12:41.620Z,7.87
2018-09-06T07:16:45.280Z,8.30
2018-09-06T07:20:48.969Z,7.37
2018-09-06T07:24:52.604Z,7.37
2018-09-06T07:28:56.318Z,7.43
2018-09-06T07:33:00.035Z,7.80
2018-09-06T07:37:03.734Z,7.70
2018-09-06T07:41:07.603Z,8.13
2018-09-06T07:45:11.263Z,7.60
2018-09-06T07:49:15.003Z,7.20
2018-09-06T07:53:18.685Z,7.30
2018-09-06T07:57:22.391Z,6.90
2018-09-06T08:01:26.123Z,7.00
2018-09-06T08:05:29.786Z,7.93
2018-09-06T08:09:33.512Z,6.07
2018-09-06T08:13:37.237Z,5.73
2018-09-06T08:17:40.948Z,6.27
2018-09-06T08:21:44.680Z,6.40
2018-09-06T08:25:48.396Z,5.43
2018-09-06T08:29:52.195Z,5.10
2018-09-06T08:33:55.934Z,5.50
2018-09-06T08:37:59.639Z,5.87
2018-09-06T08:42:03.353Z,5.23
2018-09-06T08:46:07.116Z,5.13
2018-09-06T08:50:10.808Z,5.30
2018-09-06T08:54:14.544Z,5.27
2018-09-06T08:58:18.285Z,5.10
2018-09-06T09:02:22.356Z,5.73
2018-09-06T09:06:26.144Z,5.83
2018-09-06T09:10:29.880Z,5.27
2018-09-06T09:14:33.611Z,5.50
2018-09-06T09:18:37.296Z,6.20
2018-09-06T09:22:40.989Z,5.40
2018-09-06T09:26:44.768Z,4.87
2018-09-06T09:30:48.516Z,5.70
2018-09-06T09:34:52.221Z,5.60
2018-09-06T09:38:56.038Z,5.70
2018-09-06T09:42:59.760Z,5.60
2018-09-06T09:51:06.439Z,5.77
2018-09-06T09:55:10.207Z,5.13
2018-09-06T09:59:13.990Z,5.73
2018-09-06T10:03:23.077Z,5.77
2018-09-06T10:07:32.207Z,5.17
2018-09-06T10:11:35.905Z,5.37
2018-09-06T10:15:40.243Z,5.60
2018-09-06T10:19:44.048Z,5.37
2018-09-06T10:23:47.897Z,5.27
2018-09-06T10:27:51.742Z,5.43
2018-09-06T10:31:55.437Z,5.43
2018-09-06T10:35:59.131Z,4.93
2018-09-06T10:40:03.107Z,4.50
2018-09-06T10:44:06.852Z,5.27
2018-09-06T10:48:10.556Z,5.67
2018-09-06T10:52:14.201Z,5.50
2018-09-06T10:56:17.976Z,4.83
2018-09-06T11:00:21.756Z,4.70
2018-09-06T11:04:25.580Z,5.43
2018-09-06T11:08:29.389Z,5.83
2018-09-06T11:12:33.058Z,5.13
2018-09-06T11:16:36.896Z,6.17
2018-09-06T11:20:40.594Z,5.70
2018-09-06T11:24:44.281Z,5.20
2018-09-06T11:28:48.090Z,5.20
2018-09-06T11:32:51.772Z,5.73
2018-09-06T11:36:55.566Z,5.37
2018-09-06T11:40:59.243Z,5.20
2018-09-06T11:45:03.122Z,5.40
2018-09-06T11:49:06.959Z,5.47
2018-09-06T11:53:10.753Z,5.73
2018-09-06T11:57:14.556Z,5.33
2018-09-06T12:01:18.325Z,5.73
2018-09-06T12:05:22.041Z,5.93
2018-09-06T12:09:25.814Z,5.23
2018-09-06T12:13:29.463Z,5.80
2018-09-06T12:17:33.168Z,5.40
2018-09-06T12:21:36.924Z,5.33
2018-09-06T12:25:40.709Z,7.20
2018-09-06T12:29:44.423Z,7.87
2018-09-06T12:33:48.178Z,8.10
2018-09-06T12:37:51.855Z,9.40
2018-09-06T12:41:55.628Z,8.53
2018-09-06T12:45:59.420Z,6.83
2018-09-06T12:50:03.317Z,8.57
2018-09-06T12:54:07.025Z,9.40
2018-09-06T12:58:10.750Z,8.80
2018-09-06T13:02:14.428Z,8.60
2018-09-06T13:06:18.205Z,8.90
2018-09-06T13:10:21.881Z,8.77
2018-09-06T13:14:25.587Z,9.77
2018-09-06T13:18:29.301Z,9.83
2018-09-06T13:22:32.975Z,10.13
2018-09-06T13:26:36.661Z,10.70
2018-09-06T13:30:40.364Z,11.70
2018-09-06T13:34:44.092Z,11.07
2018-09-06T13:38:47.867Z,11.30
2018-09-06T13:42:52.343Z,12.10
2018-09-06T13:46:56.064Z,12.13
2018-09-06T13:50:59.740Z,11.40
2018-09-06T13:55:03.400Z,11.30
2018-09-06T13:59:07.201Z,12.20
2018-09-06T14:03:10.887Z,11.23
2018-09-06T14:07:14.582Z,10.47
2018-09-06T14:11:18.283Z,10.90
2018-09-06T14:15:21.962Z,12.03
2018-09-06T14:19:25.671Z,11.93
2018-09-06T14:23:29.355Z,10.70
2018-09-06T14:27:33.092Z,10.70
2018-09-06T14:31:36.799Z,12.53
2018-09-06T14:35:40.457Z,11.37
2018-09-06T14:39:44.261Z,11.87
2018-09-06T14:43:48.012Z,11.20
2018-09-06T14:47:51.691Z,12.23
2018-09-06T14:51:55.391Z,11.47
2018-09-06T14:55:59.069Z,11.30
2018-09-06T15:00:02.841Z,10.80
2018-09-06T15:04:06.592Z,10.80
2018-09-06T15:08:10.400Z,10.77
2018-09-06T15:12:14.119Z,10.03
2018-09-06T15:16:17.938Z,9.60
2018-09-06T15:20:21.676Z,9.87
2018-09-06T15:24:25.359Z,10.73
2018-09-06T15:28:29.092Z,10.17
2018-09-06T15:32:32.788Z,9.97
2018-09-06T15:36:36.454Z,9.83
2018-09-06T15:40:40.148Z,10.60
2018-09-06T15:44:43.829Z,10.93
2018-09-06T15:48:47.616Z,10.37
2018-09-06T15:52:51.311Z,11.30
2018-09-06T15:56:54.954Z,10.67
2018-09-06T16:00:58.649Z,10.70
2018-09-06T16:05:02.379Z,10.83
2018-09-06T16:09:13.028Z,11.33
2018-09-06T16:13:16.725Z,10.93
2018-09-06T16:17:20.397Z,11.73
2018-09-06T16:21:24.173Z,10.83
2018-09-06T16:25:27.870Z,11.67
2018-09-06T16:29:31.647Z,11.67
2018-09-06T16:33:35.304Z,10.87
2018-09-06T16:37:45.771Z,9.57
2018-09-06T16:41:49.454Z,9.50
2018-09-06T16:45:53.116Z,10.63
2018-09-06T16:49:56.864Z,10.07
2018-09-06T16:54:00.582Z,10.37
2018-09-06T16:58:04.500Z,9.87
2018-09-06T17:02:08.449Z,9.97
2018-09-06T17:06:12.255Z,9.03
2018-09-06T17:10:16.057Z,10.53
2018-09-06T17:14:19.759Z,8.43
2018-09-06T17:18:23.465Z,8.90
2018-09-06T17:22:27.820Z,8.73
2018-09-06T17:26:31.552Z,9.63
2018-09-06T17:30:35.278Z,8.20
2018-09-06T17:34:39.276Z,7.83
2018-09-06T17:38:43.199Z,8.37
2018-09-06T17:42:47.006Z,8.60
2018-09-06T17:46:50.909Z,8.93
2018-09-06T17:50:54.780Z,9.00
2018-09-06T17:54:58.515Z,9.67
2018-09-06T17:59:02.300Z,9.00
2018-09-06T18:03:06.057Z,6.87
2018-09-06T18:07:09.856Z,6.53
2018-09-06T18:11:13.726Z,6.47
2018-09-06T18:15:17.774Z,5.77
2018-09-06T18:19:21.731Z,4.50
2018-09-06T18:23:25.927Z,5.70
2018-09-06T18:27:29.929Z,4.77
2018-09-06T18:31:33.811Z,5.20
2018-09-06T18:35:37.524Z,4.17
2018-09-06T18:39:41.214Z,5.13
2018-09-06T18:43:44.944Z,5.30
2018-09-06T18:47:48.691Z,4.90
2018-09-06T18:51:52.402Z,5.47
2018-09-06T18:55:56.149Z,5.03
2018-09-06T18:59:59.849Z,5.30
2018-09-06T19:04:03.507Z,5.43
2018-09-06T19:08:07.175Z,4.93
2018-09-06T19:12:10.868Z,4.70
2018-09-06T19:16:14.547Z,4.60
2018-09-06T19:20:18.322Z,4.40
2018-09-06T19:24:21.924Z,5.10
2018-09-06T19:28:25.713Z,4.97
2018-09-06T19:32:29.419Z,5.00
2018-09-06T19:36:33.159Z,5.17
2018-09-06T19:40:36.851Z,5.30
2018-09-06T19:44:40.491Z,4.80
2018-09-06T19:48:44.156Z,6.13
2018-09-06T19:52:47.819Z,4.80
2018-09-06T19:56:51.473Z,5.70
2018-09-06T20:00:55.128Z,5.37
2018-09-06T20:04:58.827Z,5.10
2018-09-06T20:09:02.517Z,4.80
2018-09-06T20:13:06.369Z,5.40
2018-09-06T20:17:10.056Z,5.83
2018-09-06T20:21:13.769Z,6.43
2018-09-06T20:25:17.447Z,6.17
2018-09-06T20:29:21.139Z,6.07
2018-09-06T20:33:24.820Z,5.40
2018-09-06T20:37:28.491Z,6.57
2018-09-06T20:41:32.161Z,6.07
2018-09-06T20:45:35.800Z,6.30
2018-09-06T20:49:39.527Z,6.60
2018-09-06T20:53:43.232Z,6.33
2018-09-06T20:57:46.859Z,7.00
2018-09-06T21:01:50.551Z,6.73
2018-09-06T21:05:54.289Z,6.90
2018-09-06T21:09:58.061Z,7.40
2018-09-06T21:14:01.799Z,7.83
2018-09-06T21:18:05.498Z,7.33
2018-09-06T21:22:09.188Z,6.93
2018-09-06T21:26:12.793Z,5.90
2018-09-06T21:30:16.500Z,7.20
2018-09-06T21:34:20.252Z,8.70
2018-09-06T21:38:24.020Z,9.03
2018-09-06T21:42:27.701Z,9.03
2018-09-06T21:46:31.523Z,9.03
2018-09-06T21:50:35.186Z,8.77
2018-09-06T21:54:38.842Z,14.43
2018-09-06T21:58:42.546Z,13.97
2018-09-06T22:02:51.563Z,12.60
2018-09-06T22:06:55.241Z,13.57
2018-09-06T22:10:58.912Z,15.73
2018-09-06T22:15:02.668Z,19.37
2018-09-06T22:19:06.621Z,21.97
2018-09-06T22:23:10.339Z,23.30
2018-09-06T22:27:14.095Z,25.70
2018-09-06T22:31:17.741Z,25.70
2018-09-06T22:35:21.401Z,26.20
2018-09-06T22:39:25.120Z,29.20
2018-09-06T22:43:28.780Z,29.57
2018-09-06T22:47:32.483Z,30.37
2018-09-06T22:51:36.095Z,29.83
2018-09-06T22:55:39.756Z,29.07
2018-09-06T22:59:43.475Z,29.40
2018-09-06T23:03:51.333Z,29.80
2018-09-06T23:07:55.036Z,31.33
2018-09-06T23:11:58.661Z,31.33
2018-09-06T23:16:02.328Z,30.30
2018-09-06T23:20:06.125Z,29.97
2018-09-06T23:24:09.795Z,29.47
2018-09-06T23:28:13.495Z,32.77
2018-09-06T23:32:23.456Z,34.00
2018-09-06T23:36:27.136Z,33.50
2018-09-06T23:40:35.012Z,36.93
2018-09-06T23:44:38.748Z,38.03
2018-09-06T23:48:42.432Z,38.87
2018-09-06T23:52:46.087Z,38.80
2018-09-06T23:56:49.759Z,42.07
